»·PEaware :: ACA856 KLAX-KSFO

ACA856 :: KLAX-KSFO

FLIGHT INFORMATION

Flight Status: Arrived
Operator:
Air Canada
More flights by this operator :: More flights under this callsign
Pilot: Thomas N. (7419)
Aircraft: AIRBUS A330-200
(A332)
More flights by this aircraft type
Origin: KLAX Los Angeles Intl
United States
Destination: KSFO San Francisco Intl
United States
More flights between these airports :: More routes between these airports
Route: FIXIT2 RZS J501 BSR BSR2
File this flight plan on PilotEdge
Remarks:
Altitude:
(Current/Filed)
32,000ft
Speed:
(Current/Filed)
450kts
Departed: 19-Nov-15 04:13 PM
Arrived: 19-Nov-15 05:07 PM
Distance/Time
Traveled:
293nm/0:54
Distance/Time
To Go:
Arrived

Flight Plot

Page will automatically refresh every two minutes.


Map Options




Map Legend


Flown Route
Filed Route
Departure Airport
Arrival Airport
Navaid (VOR, NDB)
Fix

Horizontal Profiles

Position Reports

Time Latitude Longitude Heading Altitude Ground
Speed
19-Nov-15 15:36 33.941603 -118.403879 265 138ft 0kts
19-Nov-15 15:37 33.941603 -118.403879 265 138ft 0kts
19-Nov-15 15:38 33.941603 -118.403879 265 138ft 0kts
19-Nov-15 15:39 33.941603 -118.403879 265 138ft 0kts
19-Nov-15 15:40 33.941603 -118.403879 265 138ft 0kts
19-Nov-15 15:41 33.941603 -118.403879 265 138ft 0kts
19-Nov-15 15:42 33.941603 -118.403879 265 138ft 0kts
19-Nov-15 15:43 33.941603 -118.403879 265 138ft 0kts
19-Nov-15 15:44 33.941603 -118.403879 265 138ft 0kts
19-Nov-15 15:45 33.941603 -118.403879 265 138ft 0kts
19-Nov-15 15:46 33.941603 -118.403879 265 138ft 0kts
19-Nov-15 15:47 33.941603 -118.403879 265 138ft 0kts
19-Nov-15 15:48 33.941603 -118.403879 265 138ft 0kts
19-Nov-15 15:49 33.941603 -118.403879 265 138ft 0kts
19-Nov-15 15:50 33.941603 -118.403879 265 138ft 0kts
19-Nov-15 15:51 33.941603 -118.403879 265 138ft 0kts
19-Nov-15 15:52 33.941603 -118.403879 265 138ft 0kts
19-Nov-15 15:53 33.941603 -118.403879 265 138ft 0kts
19-Nov-15 15:54 33.941603 -118.403879 265 138ft 0kts
19-Nov-15 15:55 33.941603 -118.403879 265 138ft 0kts
19-Nov-15 15:56 33.941603 -118.403879 265 138ft 0kts
19-Nov-15 15:57 33.941657 -118.403384 231 138ft 0kts
19-Nov-15 15:58 33.941794 -118.403320 165 138ft 0kts
19-Nov-15 15:59 33.941794 -118.403320 165 138ft 0kts
19-Nov-15 16:00 33.941794 -118.403320 165 138ft 0kts
19-Nov-15 16:01 33.940531 -118.403055 172 138ft 5kts
19-Nov-15 16:02 33.938537 -118.402626 103 138ft 0kts
19-Nov-15 16:03 33.938997 -118.398025 82 138ft 12kts
19-Nov-15 16:04 33.939571 -118.392529 82 138ft 21kts
19-Nov-15 16:05 33.940119 -118.387102 82 138ft 9kts
19-Nov-15 16:06 33.940619 -118.382252 82 138ft 8kts
19-Nov-15 16:07 33.940735 -118.381183 83 138ft 9kts
19-Nov-15 16:08 33.940747 -118.380957 90 138ft 0kts
19-Nov-15 16:09 33.940746 -118.380929 93 138ft 0kts
19-Nov-15 16:10 33.940686 -118.380682 113 138ft 11kts
19-Nov-15 16:11 33.939560 -118.383211 262 138ft 49kts
19-Nov-15 16:12 33.934364 -118.427558 263 1950ft 163kts
19-Nov-15 16:13 33.928579 -118.498009 264 3170ft 259kts
19-Nov-15 16:13 33.922692 -118.569527 264 6023ft 262kts
19-Nov-15 16:14 33.917366 -118.658392 269 9136ft 273kts
19-Nov-15 16:15 33.916009 -118.756718 269 10952ft 330kts
19-Nov-15 16:16 33.919109 -118.871484 291 13009ft 351kts
19-Nov-15 16:17 33.971292 -118.972129 319 14908ft 364kts
19-Nov-15 16:18 34.072003 -119.000323 350 17693ft 386kts
19-Nov-15 16:19 34.163344 -119.058309 301 19995ft 397kts
19-Nov-15 16:20 34.222090 -119.172296 299 22325ft 414kts
19-Nov-15 16:21 34.281413 -119.293753 298 24581ft 424kts
19-Nov-15 16:22 34.341711 -119.418995 299 26694ft 437kts
19-Nov-15 16:23 34.403523 -119.548271 300 28546ft 451kts
19-Nov-15 16:24 34.466837 -119.681103 299 30228ft 464kts
19-Nov-15 16:25 34.523296 -119.784146 315 31505ft 474kts
19-Nov-15 16:26 34.619177 -119.890420 316 31972ft 470kts
19-Nov-15 16:28 34.715295 -119.995525 316 32034ft 464kts
19-Nov-15 16:29 34.810252 -120.099725 317 32033ft 458kts
19-Nov-15 16:30 34.904508 -120.202896 317 32040ft 455kts
19-Nov-15 16:31 34.997990 -120.306017 317 32041ft 454kts
19-Nov-15 16:32 35.091341 -120.409364 317 32043ft 454kts
19-Nov-15 16:33 35.184488 -120.512835 317 32049ft 452kts
19-Nov-15 16:34 35.277387 -120.616358 318 32051ft 452kts
19-Nov-15 16:35 35.370434 -120.720894 319 32053ft 455kts
19-Nov-15 16:36 35.466298 -120.828437 320 32109ft 485kts
19-Nov-15 16:37 35.566944 -120.941834 317 32141ft 493kts
19-Nov-15 16:38 35.668750 -121.056814 318 29494ft 524kts
19-Nov-15 16:39 35.773623 -121.175153 316 27094ft 505kts
19-Nov-15 16:40 35.874818 -121.290321 317 24684ft 488kts
19-Nov-15 16:41 35.970881 -121.400022 318 23320ft 446kts
19-Nov-15 16:42 36.059446 -121.501478 316 21050ft 429kts
19-Nov-15 16:43 36.142864 -121.597394 316 20168ft 389kts
19-Nov-15 16:44 36.227407 -121.681672 324 20172ft 393kts
19-Nov-15 16:45 36.317030 -121.759677 324 20170ft 393kts
19-Nov-15 16:46 36.408577 -121.839236 324 17828ft 417kts
19-Nov-15 16:47 36.508186 -121.894684 345 15212ft 372kts
19-Nov-15 16:48 36.603415 -121.923090 346 13257ft 334kts
19-Nov-15 16:49 36.689041 -121.948182 345 11235ft 301kts
19-Nov-15 16:50 36.768315 -121.970784 347 10168ft 292kts
19-Nov-15 16:51 36.848404 -121.991666 347 10170ft 295kts
19-Nov-15 16:52 36.928811 -122.012703 347 10169ft 296kts
19-Nov-15 16:53 37.009390 -122.033821 347 10172ft 295kts
19-Nov-15 16:54 37.089314 -122.054848 346 10105ft 291kts
19-Nov-15 16:55 37.167223 -122.075379 347 8580ft 283kts
19-Nov-15 16:56 37.243462 -122.095536 347 6225ft 274kts
19-Nov-15 16:57 37.311160 -122.113199 347 6188ft 245kts
19-Nov-15 16:58 37.378003 -122.130829 347 6189ft 246kts
19-Nov-15 16:59 37.444986 -122.148469 347 5695ft 223kts
19-Nov-15 17:00 37.501985 -122.161499 342 5787ft 191kts
19-Nov-15 17:01 37.543810 -122.195911 299 4420ft 167kts
19-Nov-15 17:02 37.563670 -122.243458 296 3299ft 157kts
19-Nov-15 17:03 37.584718 -122.293835 298 1641ft 157kts
19-Nov-15 17:04 37.603583 -122.339288 298 454ft 127kts
19-Nov-15 17:05 37.618378 -122.374301 298 26ft 33kts
19-Nov-15 17:06 37.618957 -122.377875 267 26ft 1kts
19-Nov-15 17:07 37.618191 -122.380775 214 26ft 0kts

Navigation Log

Ident Type
Flight plan parsing failed, navigation log unavailable